Readsville, Missouri
Current Conditions -  °F | °C
As of 5:53 AM on Monday 22 Dec 2014 (Local Time) from KJEF Reporting Station
Haze Haze  
Wind Chill: 36°   Ceiling: 1800
Heat Index: 41°   Visibility: 5mi
Dew Point: 38°   Wind: 8mph
Humidity: 89%   Direction: 100°E
Pressure: 29.71"   Gusts: NA
Location:  38.7662°N, 91.6923°W
Report Text: KJEF 221153Z AUTO 10007KT 5SM BR OVC018 05/03 A2971 RMK AO2 RAB31E50 SLP054 P0000 60001 70001 T00500033 10061 20050 56026
Loading
Personal Weather Stations






























Interactive Weather Map New forecast layout! Learn more

10-Day Weather Forecast

Advertisements
Track Severe Weather on mobile